Flight Track Log - Related Links

Times and Time Zones

All times are in EDT time to prevent confusion due to time zone crossing. See the AAY800 flight status page for this flight to view local times or setup timezone preferences in your user account.

Time Position Orientation Groundspeed Altitude Reporting Facility
EDT Latitude Longitude Course Direction KTS MPH feet Rate Location/Type
Sun 06:33:02 AM 27.9000 -82.6833 319° Northwest 26 30 100  Level Tampa TRACON
Sun 06:35:02 AM 27.9167 -82.7000 319° Northwest 150 173 700 786 Climbing Tampa TRACON
Sun 06:35:50 AM 27.9500 -82.6833 24° Northeast 159 183 2,300 2,056 Climbing Tampa TRACON
Sun 06:36:50 AM 28.0167 -82.6667 12° North 222 255 4,400 2,203 Climbing Tampa TRACON
Sun 06:43:14 AM 28.5601 -82.6452 North 365 420 18,600 2,175 Climbing FlightAware ADS-B
Sun 06:43:52 AM 28.6135 -82.6378 North 372 428 19,700 1,704 Climbing FlightAware ADS-B
Sun 06:44:35 AM 28.6995 -82.6343 North 381 438 20,900 1,728 Climbing FlightAware ADS-B
Sun 06:45:57 AM 28.8466 -82.6280 North 392 451 23,300 1,736 Climbing FlightAware ADS-B
Sun 06:46:36 AM 28.9186 -82.6249 North 396 456 24,400 1,500 Climbing FlightAware ADS-B
Sun 06:47:17 AM 28.9937 -82.6216 North 404 465 25,300 1,244 Climbing FlightAware ADS-B
Sun 06:47:58 AM 29.0489 -82.6192 North 412 474 26,100 1,139 Climbing FlightAware ADS-B
Sun 06:48:36 AM 29.1446 -82.6150 North 421 484 26,800 1,125 Climbing FlightAware ADS-B
Sun 06:49:18 AM 29.2278 -82.6114 North 427 491 27,600 1,098 Climbing FlightAware ADS-B
Sun 06:51:20 AM 29.4747 -82.6005 North 444 511 29,800 1,111 Climbing FlightAware ADS-B
Sun 06:52:00 AM 29.5557 -82.5968 North 444 511 30,600 903 Climbing FlightAware ADS-B
Sun 06:52:53 AM 29.6670 -82.5920 North 453 521 31,200 720 Climbing FlightAware ADS-B
Sun 06:53:40 AM 29.7659 -82.5876 North 457 526 31,800 1,013 Climbing FlightAware ADS-B
Sun 06:54:10 AM 29.8311 -82.5847 North 454 522 32,500 1,200 Climbing FlightAware ADS-B
Sun 06:55:00 AM 29.9335 -82.5801 North 452 520 33,400 1,000 Climbing FlightAware ADS-B
Sun 06:55:40 AM 30.0194 -82.5764 North 451 519 34,000 911 Climbing FlightAware ADS-B
Sun 06:56:19 AM 30.1013 -82.5726 North 451 519 34,600 911 Climbing FlightAware ADS-B
Sun 06:56:59 AM 30.1852 -82.5688 North 450 518 35,200 911 Climbing FlightAware ADS-B
Sun 06:57:38 AM 30.2646 -82.5654 North 447 514 35,800 815 Climbing FlightAware ADS-B
Sun 06:58:20 AM 30.3526 -82.5615 North 447 514 36,300 667 Climbing FlightAware ADS-B
Sun 06:58:59 AM 30.4341 -82.5578 North 447 514 36,700 525 Climbing FlightAware ADS-B
Sun 06:59:40 AM 30.5164 -82.5541 North 448 516 37,000 225 Climbing FlightAware ADS-B
Sun 07:00:19 AM 30.5991 -82.5504 North 445 512 37,000  Level FlightAware ADS-B
Sun 07:01:00 AM 30.6827 -82.5467 North 443 510 37,000  Level FlightAware ADS-B
Sun 07:02:04 AM 30.8140 -82.5408 North 442 509 37,000  Level FlightAware ADS-B
Sun 07:03:20 AM 30.9709 -82.5336 North 441 507 37,000  Level FlightAware ADS-B
Sun 07:04:42 AM 31.1200 -82.5311 North 439 505 37,000 -42 Level Jacksonville Center
Sun 07:05:42 AM 31.2411 -82.5256 North 439 505 36,900  Descending Jacksonville Center
Sun 07:06:42 AM 31.3767 -82.5153 North 439 505 37,000 50 Climbing Jacksonville Center
Sun 07:07:42 AM 31.5000 -82.5125 North 439 505 37,000  Level Jacksonville Center
Sun 07:09:28 AM 31.7003 -82.5644 348° North 420 483 37,000  Level Atlanta Center
Sun 07:10:28 AM 31.8111 -82.5994 345° North 415 478 37,000 -50 Level Atlanta Center
Sun 07:11:28 AM 31.9222 -82.6367 344° North 410 472 36,900 -50 Descending Atlanta Center
Sun 07:12:28 AM 32.0333 -82.6742 344° North 410 472 36,900 50 Level Atlanta Center
Sun 07:13:28 AM 32.1464 -82.7117 344° North 415 478 37,000 50 Climbing Atlanta Center
Sun 07:14:28 AM 32.2594 -82.7494 344° North 420 483 37,000  Level Atlanta Center
Sun 07:15:28 AM 32.3728 -82.7894 343° North 420 483 37,000  Level Atlanta Center
Sun 07:16:28 AM 32.4919 -82.8272 345° North 420 483 37,000  Level Atlanta Center
Sun 07:17:28 AM 32.6008 -82.8653 344° North 420 483 37,000  Level Atlanta Center
Sun 07:18:28 AM 32.7161 -82.9006 346° North 420 483 37,000  Level Atlanta Center
Sun 07:19:28 AM 32.8333 -82.9436 343° North 425 489 37,000  Level Atlanta Center
Sun 07:20:28 AM 32.9464 -82.9819 344° North 425 489 37,000  Level Atlanta Center
Sun 07:21:28 AM 33.0364 -83.0131 344° North 420 483 37,000 -50 Level Atlanta Center
Sun 07:22:28 AM 33.1706 -83.0611 343° North 420 483 36,900  Descending Atlanta Center
Sun 07:23:28 AM 33.2814 -83.0994 344° North 414 476 37,000 50 Climbing Atlanta Center
Sun 07:24:28 AM 33.3944 -83.1356 345° North 414 476 37,000  Level Atlanta Center
Sun 07:25:28 AM 33.5072 -83.1744 344° North 417 480 37,000  Level Atlanta Center
Sun 07:26:28 AM 33.6183 -83.2106 345° North 417 480 37,000  Level Atlanta Center
Sun 07:30:35 AM 34.2328 -83.4058 347° North 410 472 37,000  Level FlightAware ADS-B (KDZJ)
Sun 07:31:16 AM 34.3081 -83.4274 346° North 401 461 37,000  Level FlightAware ADS-B (KDZJ)
Sun 07:31:51 AM 34.3732 -83.4460 346° North 399 459 37,000  Level FlightAware ADS-B (KDZJ)
Sun 07:32:32 AM 34.4482 -83.4677 346° North 399 459 37,000  Level FlightAware ADS-B (KDZJ)
Sun 07:33:11 AM 34.5192 -83.4881 346° North 399 459 37,000  Level FlightAware ADS-B (KDZJ)
Sun 07:33:56 AM 34.6023 -83.5121 346° North 398 458 37,000  Level FlightAware ADS-B (KDZJ)
Sun 07:34:33 AM 34.6700 -83.5315 346° North 396 456 37,000  Level FlightAware ADS-B (KDZJ)
Sun 07:35:15 AM 34.7465 -83.5538 346° North 398 458 37,000  Level FlightAware ADS-B (KDZJ)
Sun 07:35:55 AM 34.8202 -83.5753 346° North 399 459 37,000  Level FlightAware ADS-B (KDZJ)
Sun 07:36:33 AM 34.8893 -83.5955 346° North 397 457 37,000  Level FlightAware ADS-B (KDZJ)
Sun 07:37:17 AM 34.9690 -83.6186 346° North 397 457 37,000 146 Level FlightAware ADS-B (KDZJ)
Sun 07:37:55 AM 35.0407 -83.6360 352° North 406 467 37,200 525 Climbing FlightAware ADS-B (KDZJ)
Sun 07:38:37 AM 35.1190 -83.6499 352° North 403 464 37,700 600 Climbing FlightAware ADS-B (KDZJ)
Sun 07:39:15 AM 35.1918 -83.6628 352° North 410 472 38,000 257 Climbing FlightAware ADS-B (KDZJ)
Sun 07:39:47 AM 35.2505 -83.6733 352° North 410 472 38,000  Level FlightAware ADS-B (KDZJ)
Sun 07:40:34 AM 35.3386 -83.6892 352° North 406 467 38,000  Level FlightAware ADS-B (KDZJ)
Sun 07:41:12 AM 35.4091 -83.7019 352° North 407 468 38,000  Level FlightAware ADS-B (KDZJ)
Sun 07:41:47 AM 35.4766 -83.7141 352° North 409 471 38,000  Level FlightAware ADS-B (KDZJ)
Sun 07:42:28 AM 35.3903 -83.7000 352° North 403 464 38,000  Level Atlanta Center
Sun 07:43:28 AM 35.5031 -83.7200 352° North 408 470 38,000  Level Atlanta Center
Sun 07:45:11 AM 35.6956 -83.7536 352° North 416 479 38,000  Level Indianapolis Center
Sun 07:46:13 AM 35.8108 -83.7736 352° North 417 480 38,000  Level Indianapolis Center
Sun 07:47:13 AM 35.9261 -83.7944 352° North 417 480 38,000  Level Indianapolis Center
Sun 07:48:14 AM 36.0514 -83.8178 351° North 417 480 38,000  Level Indianapolis Center
Sun 07:49:15 AM 36.1647 -83.8392 351° North 417 480 38,000  Level Indianapolis Center
Sun 07:50:19 AM 36.2767 -83.8597 352° North 414 476 38,000  Level Indianapolis Center
Sun 07:51:17 AM 36.3867 -83.8794 352° North 407 468 38,000 -49 Level Indianapolis Center
Sun 07:52:21 AM 36.4964 -83.8992 352° North 403 464 37,900 -48 Descending Indianapolis Center
Sun 07:53:22 AM 36.6044 -83.8922 North 407 468 37,900 50 Level Indianapolis Center
Sun 07:54:21 AM 36.7392 -83.8867 North 408 470 38,000 49 Climbing Indianapolis Center
Sun 07:55:25 AM 36.8542 -83.8814 North 409 471 38,000  Level Indianapolis Center
Sun 07:56:25 AM 36.9675 -83.8761 North 409 471 38,000  Level Indianapolis Center
Sun 07:57:26 AM 37.0825 -83.8706 North 409 471 38,000  Level Indianapolis Center
Sun 07:58:26 AM 37.1975 -83.8647 North 410 472 38,000  Level Indianapolis Center
Sun 07:59:30 AM 37.3117 -83.8589 North 410 472 38,000  Level Indianapolis Center
Sun 08:00:32 AM 37.4256 -83.8539 North 409 471 38,000  Level Indianapolis Center
Sun 08:01:32 AM 37.5417 -83.8467 North 410 472 38,000  Level Indianapolis Center
Sun 08:06:59 AM 38.1767 -83.8151 North 401 461 38,000 -59 Level FlightAware ADS-B
Sun 08:08:16 AM 38.3206 -83.8075 North 401 461 37,600 -550 Descending FlightAware ADS-B
Sun 08:08:59 AM 38.3846 -83.8042 North 401 461 36,900 -986 Descending FlightAware ADS-B
Sun 08:09:29 AM 38.4555 -83.8005 North 401 461 36,400 -1,000 Descending FlightAware ADS-B
Sun 08:09:59 AM 38.5027 -83.7980 North 400 460 35,900 -971 Descending FlightAware ADS-B
Sun 08:10:37 AM 38.5771 -83.7941 North 400 460 35,300 -923 Descending FlightAware ADS-B
Sun 08:11:17 AM 38.6553 -83.7902 North 404 465 34,700 -943 Descending FlightAware ADS-B
Sun 08:11:47 AM 38.7041 -83.7877 North 408 470 34,200 -1,029 Descending FlightAware ADS-B
Sun 08:12:27 AM 38.7870 -83.7834 North 410 472 33,500 -943 Descending FlightAware ADS-B
Sun 08:12:57 AM 38.8442 -83.7803 North 405 466 33,100 -492 Descending FlightAware ADS-B
Sun 08:13:28 AM 38.8909 -83.7778 North 406 467 33,000 -98 Descending FlightAware ADS-B
Sun 08:13:58 AM 38.9549 -83.7746 North 406 467 33,000  Level FlightAware ADS-B
Sun 08:14:32 AM 39.0228 -83.7710 North 405 466 33,000  Level FlightAware ADS-B
Sun 08:15:02 AM 39.0728 -83.7684 North 403 464 33,000  Level FlightAware ADS-B
Sun 08:15:42 AM 39.1532 -83.7641 North 402 463 33,000 -243 Level FlightAware ADS-B
Sun 08:16:16 AM 39.2130 -83.7610 North 400 460 32,700 -1,183 Descending FlightAware ADS-B
Sun 08:16:53 AM 39.2856 -83.7567 North 389 448 31,600 -1,663 Descending FlightAware ADS-B
Sun 08:19:02 AM 39.5142 -83.7451 North 376 433 28,100 -1,630 Descending FlightAware ADS-B
Sun 08:19:35 AM 39.5705 -83.7421 North 369 425 27,200 -1,652 Descending FlightAware ADS-B
Sun 08:20:11 AM 39.6204 -83.7394 North 361 415 26,200 -1,459 Descending FlightAware ADS-B
Sun 08:20:49 AM 39.6781 -83.7356 North 365 420 25,400 -727 Descending Cleveland Center
Sun 08:21:50 AM 39.7900 -83.7308 North 352 405 25,000 -545 Descending Cleveland Center
Sun 08:23:01 AM 39.8936 -83.7244 North 350 403 24,200 -496 Descending Indianapolis Center
Sun 08:24:03 AM 39.9908 -83.7194 North 349 402 23,900 -1,104 Descending Indianapolis Center
Sun 08:25:06 AM 40.0858 -83.7139 North 345 397 21,900 -1,694 Descending Indianapolis Center
Sun 08:26:07 AM 40.1786 -83.7094 North 337 388 20,400 -1,537 Descending Indianapolis Center
Sun 08:27:07 AM 40.2644 -83.7042 North 317 365 18,800 -1,597 Descending Indianapolis Center
Sun 08:28:11 AM 40.3667 -83.6983 North 310 357 17,100 -864 Descending Indianapolis Center
Sun 08:29:12 AM 40.4494 -83.6950 North 304 350 17,000 -49 Descending Indianapolis Center
Sun 08:30:13 AM 40.5331 -83.6903 North 303 349 17,000  Level Indianapolis Center
Sun 08:31:15 AM 40.6169 -83.6847 North 303 349 17,000  Level Indianapolis Center
Sun 08:32:16 AM 40.7008 -83.6808 North 303 349 17,000  Level Indianapolis Center
Sun 08:33:18 AM 40.7853 -83.6747 North 303 349 17,000 -488 Level Indianapolis Center
Sun 08:34:19 AM 40.8694 -83.6708 North 303 349 16,000 -1,278 Descending Indianapolis Center
Sun 08:35:06 AM 40.9361 -83.6667 North 300 345 14,700 -1,667 Descending Cleveland Center
Sun 08:36:07 AM 41.0169 -83.6636 North 294 338 13,000 -1,721 Descending Cleveland Center
Sun 08:37:08 AM 41.1039 -83.6628 360° North 281 323 11,200 -1,426 Descending Cleveland Center
Sun 08:38:09 AM 41.1764 -83.6697 356° North 264 304 10,100 -1,220 Descending Cleveland Center
Sun 08:39:11 AM 41.2444 -83.6719 359° North 246 283 8,700 -1,122 Descending Cleveland Center
Sun 08:40:12 AM 41.3106 -83.6747 358° North 241 277 7,800 -885 Descending Cleveland Center
Sun 08:41:13 AM 41.3697 -83.6739 North 218 251 6,900 -927 Descending Cleveland Center
Sun 08:42:15 AM 41.4222 -83.6708 North 193 222 5,900 -1,268 Descending Cleveland Center
Sun 08:43:16 AM 41.4800 -83.6758 356° North 179 206 4,300 -1,366 Descending Cleveland Center
Sun 08:44:18 AM 41.5300 -83.6883 349° North 178 205 3,100 -927 Descending Cleveland Center
Sun 08:45:19 AM 41.5722 -83.7025 346° North 168 193 2,400 -689 Descending Cleveland Center
Sun 08:46:20 AM 41.6006 -83.7308 323° Northwest 156 180 1,700 -390 Descending Cleveland Center
Sun 08:47:22 AM 41.6300 -83.7789 309° West 160 184 1,600 -97 Descending Cleveland Center

Login

Don't have an account? Register now (free) for customized features, flight alerts, and more!